sensor_id;sensor_type;location;lat;lon;timestamp;pressure;altitude;pressure_sealevel;temperature;humidity
49979;BME280;35869;50.990;6.962;2023-10-31T00:01:00;99387.94;;;12.15;100.00
49979;BME280;35869;50.990;6.962;2023-10-31T00:06:00;99409.84;;;12.00;100.00
49979;BME280;35869;50.990;6.962;2023-10-31T00:11:01;99416.13;;;11.97;100.00
49979;BME280;35869;50.990;6.962;2023-10-31T00:16:01;99428.31;;;11.97;100.00
49979;BME280;35869;50.990;6.962;2023-10-31T00:21:08;99427.56;;;11.95;100.00
49979;BME280;35869;50.990;6.962;2023-10-31T00:26:08;99428.41;;;11.95;100.00
49979;BME280;35869;50.990;6.962;2023-10-31T00:31:09;99436.84;;;11.99;100.00
49979;BME280;35869;50.990;6.962;2023-10-31T00:36:09;99446.97;;;11.91;100.00
49979;BME280;35869;50.990;6.962;2023-10-31T00:41:09;99458.31;;;11.90;100.00
49979;BME280;35869;50.990;6.962;2023-10-31T00:46:09;99467.69;;;11.80;100.00
49979;BME280;35869;50.990;6.962;2023-10-31T00:51:10;99476.53;;;11.77;100.00
49979;BME280;35869;50.990;6.962;2023-10-31T00:56:10;99474.03;;;11.75;100.00
49979;BME280;35869;50.990;6.962;2023-10-31T01:01:10;99494.03;;;11.75;100.00
49979;BME280;35869;50.990;6.962;2023-10-31T01:06:10;99492.97;;;11.65;100.00
49979;BME280;35869;50.990;6.962;2023-10-31T01:11:10;99490.59;;;11.62;100.00
49979;BME280;35869;50.990;6.962;2023-10-31T01:16:11;99500.06;;;11.63;100.00
49979;BME280;35869;50.990;6.962;2023-10-31T01:21:12;99493.00;;;11.52;100.00
49979;BME280;35869;50.990;6.962;2023-10-31T01:26:12;99516.81;;;11.46;100.00
49979;BME280;35869;50.990;6.962;2023-10-31T01:31:12;99505.28;;;11.50;100.00
49979;BME280;35869;50.990;6.962;2023-10-31T01:36:12;99511.31;;;11.51;100.00
49979;BME280;35869;50.990;6.962;2023-10-31T01:41:13;99521.09;;;11.47;100.00
49979;BME280;35869;50.990;6.962;2023-10-31T01:46:13;99513.50;;;11.44;100.00
49979;BME280;35869;50.990;6.962;2023-10-31T01:51:13;99520.03;;;11.37;100.00
49979;BME280;35869;50.990;6.962;2023-10-31T01:56:14;99520.53;;;11.29;100.00
49979;BME280;35869;50.990;6.962;2023-10-31T02:01:14;99526.81;;;11.27;100.00
49979;BME280;35869;50.990;6.962;2023-10-31T02:06:14;99528.34;;;11.29;100.00
49979;BME280;35869;50.990;6.962;2023-10-31T02:11:15;99535.72;;;11.23;100.00
49979;BME280;35869;50.990;6.962;2023-10-31T02:16:15;99525.72;;;11.16;100.00
49979;BME280;35869;50.990;6.962;2023-10-31T02:21:19;99522.91;;;11.19;100.00
49979;BME280;35869;50.990;6.962;2023-10-31T02:26:19;99522.47;;;11.13;100.00
49979;BME280;35869;50.990;6.962;2023-10-31T02:31:19;99522.59;;;11.11;100.00
49979;BME280;35869;50.990;6.962;2023-10-31T02:36:20;99518.53;;;11.07;100.00
49979;BME280;35869;50.990;6.962;2023-10-31T02:41:20;99525.59;;;11.05;100.00
49979;BME280;35869;50.990;6.962;2023-10-31T02:46:20;99525.50;;;11.07;100.00
49979;BME280;35869;50.990;6.962;2023-10-31T02:51:20;99528.38;;;11.02;100.00
49979;BME280;35869;50.990;6.962;2023-10-31T02:56:21;99523.19;;;11.02;100.00
49979;BME280;35869;50.990;6.962;2023-10-31T03:01:21;99533.16;;;10.95;100.00
49979;BME280;35869;50.990;6.962;2023-10-31T03:06:21;99541.88;;;10.94;100.00
49979;BME280;35869;50.990;6.962;2023-10-31T03:11:26;99545.44;;;10.93;100.00
49979;BME280;35869;50.990;6.962;2023-10-31T03:16:26;99559.75;;;10.86;100.00
49979;BME280;35869;50.990;6.962;2023-10-31T03:21:26;99551.13;;;10.86;100.00
49979;BME280;35869;50.990;6.962;2023-10-31T03:26:27;99556.41;;;10.84;100.00
49979;BME280;35869;50.990;6.962;2023-10-31T03:31:27;99549.66;;;10.82;100.00
49979;BME280;35869;50.990;6.962;2023-10-31T03:36:27;99554.28;;;10.77;100.00
49979;BME280;35869;50.990;6.962;2023-10-31T03:41:27;99552.25;;;10.82;100.00
49979;BME280;35869;50.990;6.962;2023-10-31T03:46:27;99567.94;;;10.80;100.00
49979;BME280;35869;50.990;6.962;2023-10-31T03:51:28;99565.63;;;10.76;100.00
49979;BME280;35869;50.990;6.962;2023-10-31T03:56:28;99572.06;;;10.70;100.00
49979;BME280;35869;50.990;6.962;2023-10-31T04:01:28;99580.78;;;10.69;100.00
49979;BME280;35869;50.990;6.962;2023-10-31T04:06:28;99592.72;;;10.72;100.00
49979;BME280;35869;50.990;6.962;2023-10-31T04:11:28;99587.81;;;10.67;100.00
49979;BME280;35869;50.990;6.962;2023-10-31T04:16:29;99598.97;;;10.69;100.00
49979;BME280;35869;50.990;6.962;2023-10-31T04:21:29;99600.91;;;10.65;100.00
49979;BME280;35869;50.990;6.962;2023-10-31T04:26:29;99606.88;;;10.67;100.00
49979;BME280;35869;50.990;6.962;2023-10-31T04:31:29;99611.31;;;10.65;100.00
49979;BME280;35869;50.990;6.962;2023-10-31T04:36:29;99615.50;;;10.68;100.00
49979;BME280;35869;50.990;6.962;2023-10-31T04:41:30;99612.34;;;10.63;100.00
49979;BME280;35869;50.990;6.962;2023-10-31T04:46:30;99624.03;;;10.70;100.00
49979;BME280;35869;50.990;6.962;2023-10-31T04:51:37;99633.59;;;10.70;100.00
49979;BME280;35869;50.990;6.962;2023-10-31T04:56:37;99638.97;;;10.66;100.00
49979;BME280;35869;50.990;6.962;2023-10-31T05:01:37;99638.78;;;10.70;100.00
49979;BME280;35869;50.990;6.962;2023-10-31T05:06:38;99642.31;;;10.68;100.00
49979;BME280;35869;50.990;6.962;2023-10-31T05:11:38;99643.63;;;10.61;100.00
49979;BME280;35869;50.990;6.962;2023-10-31T05:16:39;99643.31;;;10.66;100.00
49979;BME280;35869;50.990;6.962;2023-10-31T05:21:39;99644.97;;;10.67;100.00
49979;BME280;35869;50.990;6.962;2023-10-31T05:26:40;99642.69;;;10.62;100.00
49979;BME280;35869;50.990;6.962;2023-10-31T05:31:40;99644.81;;;10.70;100.00
49979;BME280;35869;50.990;6.962;2023-10-31T05:36:40;99654.28;;;10.71;100.00
49979;BME280;35869;50.990;6.962;2023-10-31T05:41:40;99656.88;;;10.71;100.00
49979;BME280;35869;50.990;6.962;2023-10-31T05:46:41;99666.44;;;10.71;100.00
49979;BME280;35869;50.990;6.962;2023-10-31T05:51:41;99670.34;;;10.63;100.00
49979;BME280;35869;50.990;6.962;2023-10-31T05:56:41;99681.84;;;10.59;100.00
49979;BME280;35869;50.990;6.962;2023-10-31T06:01:41;99687.81;;;10.61;100.00
49979;BME280;35869;50.990;6.962;2023-10-31T06:06:42;99689.53;;;10.61;100.00
49979;BME280;35869;50.990;6.962;2023-10-31T06:11:42;99696.69;;;10.57;100.00
49979;BME280;35869;50.990;6.962;2023-10-31T06:16:43;99706.72;;;10.63;100.00
49979;BME280;35869;50.990;6.962;2023-10-31T06:21:43;99717.84;;;10.65;100.00
49979;BME280;35869;50.990;6.962;2023-10-31T06:26:44;99729.53;;;10.58;100.00
49979;BME280;35869;50.990;6.962;2023-10-31T06:31:44;99736.03;;;10.65;100.00
49979;BME280;35869;50.990;6.962;2023-10-31T06:36:44;99745.44;;;10.68;100.00
49979;BME280;35869;50.990;6.962;2023-10-31T06:41:44;99746.25;;;10.68;100.00
49979;BME280;35869;50.990;6.962;2023-10-31T06:46:44;99750.53;;;10.70;100.00
49979;BME280;35869;50.990;6.962;2023-10-31T06:51:45;99753.50;;;10.63;100.00
49979;BME280;35869;50.990;6.962;2023-10-31T06:56:45;99778.38;;;10.67;100.00
49979;BME280;35869;50.990;6.962;2023-10-31T07:01:45;99774.28;;;10.63;100.00
49979;BME280;35869;50.990;6.962;2023-10-31T07:06:45;99782.81;;;10.65;100.00
49979;BME280;35869;50.990;6.962;2023-10-31T07:11:45;99787.38;;;10.62;100.00
49979;BME280;35869;50.990;6.962;2023-10-31T07:16:47;99795.06;;;10.63;100.00
49979;BME280;35869;50.990;6.962;2023-10-31T07:21:47;99798.97;;;10.56;100.00
49979;BME280;35869;50.990;6.962;2023-10-31T07:26:47;99801.63;;;10.55;100.00
49979;BME280;35869;50.990;6.962;2023-10-31T07:31:47;99805.63;;;10.60;100.00
49979;BME280;35869;50.990;6.962;2023-10-31T07:36:48;99803.69;;;10.64;100.00
49979;BME280;35869;50.990;6.962;2023-10-31T07:41:48;99795.25;;;10.60;100.00
49979;BME280;35869;50.990;6.962;2023-10-31T07:46:48;99792.47;;;10.63;100.00
49979;BME280;35869;50.990;6.962;2023-10-31T07:51:48;99796.16;;;10.59;100.00
49979;BME280;35869;50.990;6.962;2023-10-31T07:56:49;99804.38;;;10.67;100.00
49979;BME280;35869;50.990;6.962;2023-10-31T08:01:49;99805.38;;;10.65;100.00
49979;BME280;35869;50.990;6.962;2023-10-31T08:06:49;99815.75;;;10.65;100.00
49979;BME280;35869;50.990;6.962;2023-10-31T08:11:49;99828.38;;;10.71;100.00
49979;BME280;35869;50.990;6.962;2023-10-31T08:16:49;99832.03;;;10.68;100.00
49979;BME280;35869;50.990;6.962;2023-10-31T08:21:50;99844.25;;;10.66;100.00
49979;BME280;35869;50.990;6.962;2023-10-31T08:26:50;99852.81;;;10.68;100.00
49979;BME280;35869;50.990;6.962;2023-10-31T08:31:50;99861.34;;;10.71;100.00
49979;BME280;35869;50.990;6.962;2023-10-31T08:36:50;99863.59;;;10.77;100.00
49979;BME280;35869;50.990;6.962;2023-10-31T08:41:52;99865.09;;;10.81;100.00
49979;BME280;35869;50.990;6.962;2023-10-31T08:46:52;99869.09;;;10.86;100.00
49979;BME280;35869;50.990;6.962;2023-10-31T08:51:52;99876.16;;;10.99;100.00
49979;BME280;35869;50.990;6.962;2023-10-31T08:56:52;99883.13;;;10.98;100.00
49979;BME280;35869;50.990;6.962;2023-10-31T09:01:53;99903.66;;;11.03;100.00
49979;BME280;35869;50.990;6.962;2023-10-31T09:06:53;99912.66;;;11.11;100.00
49979;BME280;35869;50.990;6.962;2023-10-31T09:11:53;99909.59;;;11.05;100.00
49979;BME280;35869;50.990;6.962;2023-10-31T09:16:53;99916.84;;;11.14;100.00
49979;BME280;35869;50.990;6.962;2023-10-31T09:21:55;99928.63;;;11.19;100.00
49979;BME280;35869;50.990;6.962;2023-10-31T09:26:55;99931.81;;;11.25;100.00
49979;BME280;35869;50.990;6.962;2023-10-31T09:31:55;99939.81;;;11.36;100.00
49979;BME280;35869;50.990;6.962;2023-10-31T09:36:56;99945.59;;;11.27;100.00
49979;BME280;35869;50.990;6.962;2023-10-31T09:41:56;99963.97;;;11.24;100.00
49979;BME280;35869;50.990;6.962;2023-10-31T09:46:56;99962.28;;;11.23;100.00
49979;BME280;35869;50.990;6.962;2023-10-31T09:51:57;99962.97;;;11.40;100.00
49979;BME280;35869;50.990;6.962;2023-10-31T09:56:57;99966.59;;;11.52;100.00
49979;BME280;35869;50.990;6.962;2023-10-31T10:01:57;99976.47;;;11.61;100.00
49979;BME280;35869;50.990;6.962;2023-10-31T10:11:59;99994.75;;;11.60;100.00
49979;BME280;35869;50.990;6.962;2023-10-31T10:16:59;99995.78;;;11.71;100.00
49979;BME280;35869;50.990;6.962;2023-10-31T10:21:59;100001.38;;;11.80;100.00
49979;BME280;35869;50.990;6.962;2023-10-31T10:27:00;100005.31;;;11.87;100.00
49979;BME280;35869;50.990;6.962;2023-10-31T10:32:00;100016.03;;;11.66;100.00
49979;BME280;35869;50.990;6.962;2023-10-31T10:37:01;100012.47;;;11.97;100.00
49979;BME280;35869;50.990;6.962;2023-10-31T10:42:09;100010.88;;;11.95;100.00
49979;BME280;35869;50.990;6.962;2023-10-31T10:47:12;100015.03;;;12.12;100.00
49979;BME280;35869;50.990;6.962;2023-10-31T10:52:44;100019.25;;;12.14;100.00
49979;BME280;35869;50.990;6.962;2023-10-31T11:02:52;100020.47;;;12.09;100.00
49979;BME280;35869;50.990;6.962;2023-10-31T11:07:53;100022.94;;;12.24;100.00
49979;BME280;35869;50.990;6.962;2023-10-31T11:12:53;100025.84;;;12.20;100.00
49979;BME280;35869;50.990;6.962;2023-10-31T11:17:55;100027.38;;;12.37;100.00
49979;BME280;35869;50.990;6.962;2023-10-31T11:22:56;100035.19;;;12.37;100.00
49979;BME280;35869;50.990;6.962;2023-10-31T11:27:56;100032.59;;;12.37;100.00
49979;BME280;35869;50.990;6.962;2023-10-31T11:32:58;100045.81;;;12.34;100.00
49979;BME280;35869;50.990;6.962;2023-10-31T11:38:02;100046.09;;;12.29;100.00
49979;BME280;35869;50.990;6.962;2023-10-31T11:43:04;100045.47;;;12.25;100.00
49979;BME280;35869;50.990;6.962;2023-10-31T11:48:05;100050.81;;;12.37;100.00
49979;BME280;35869;50.990;6.962;2023-10-31T11:53:13;100052.59;;;12.36;100.00
49979;BME280;35869;50.990;6.962;2023-10-31T11:58:18;100057.53;;;12.41;100.00
49979;BME280;35869;50.990;6.962;2023-10-31T12:03:20;100059.97;;;12.44;100.00
49979;BME280;35869;50.990;6.962;2023-10-31T12:08:35;100061.19;;;12.38;100.00
49979;BME280;35869;50.990;6.962;2023-10-31T12:13:42;100060.84;;;12.57;100.00
49979;BME280;35869;50.990;6.962;2023-10-31T12:18:57;100057.47;;;12.69;100.00
49979;BME280;35869;50.990;6.962;2023-10-31T12:24:05;100059.75;;;12.47;100.00
49979;BME280;35869;50.990;6.962;2023-10-31T12:29:22;100055.75;;;12.56;100.00
49979;BME280;35869;50.990;6.962;2023-10-31T12:34:24;100050.97;;;12.62;100.00
49979;BME280;35869;50.990;6.962;2023-10-31T12:39:25;100065.28;;;12.69;100.00
49979;BME280;35869;50.990;6.962;2023-10-31T12:44:27;100063.97;;;12.76;100.00
49979;BME280;35869;50.990;6.962;2023-10-31T12:49:28;100057.34;;;12.85;100.00
49979;BME280;35869;50.990;6.962;2023-10-31T12:54:32;100054.56;;;13.01;100.00
49979;BME280;35869;50.990;6.962;2023-10-31T12:59:33;100053.06;;;12.84;100.00
49979;BME280;35869;50.990;6.962;2023-10-31T13:04:33;100052.34;;;12.95;100.00
49979;BME280;35869;50.990;6.962;2023-10-31T13:09:37;100048.75;;;13.10;100.00
49979;BME280;35869;50.990;6.962;2023-10-31T13:14:40;100053.84;;;13.12;100.00
49979;BME280;35869;50.990;6.962;2023-10-31T13:19:40;100046.09;;;13.24;100.00
49979;BME280;35869;50.990;6.962;2023-10-31T13:24:46;100055.19;;;13.04;100.00
49979;BME280;35869;50.990;6.962;2023-10-31T13:29:50;100056.00;;;12.92;100.00
49979;BME280;35869;50.990;6.962;2023-10-31T13:34:50;100047.66;;;13.00;100.00
49979;BME280;35869;50.990;6.962;2023-10-31T13:39:51;100049.81;;;12.80;100.00
49979;BME280;35869;50.990;6.962;2023-10-31T13:44:51;100052.66;;;12.90;100.00
49979;BME280;35869;50.990;6.962;2023-10-31T13:49:51;100055.13;;;13.19;100.00
49979;BME280;35869;50.990;6.962;2023-10-31T13:54:52;100062.34;;;13.15;100.00
49979;BME280;35869;50.990;6.962;2023-10-31T13:59:52;100060.31;;;13.06;100.00
49979;BME280;35869;50.990;6.962;2023-10-31T14:04:53;100062.56;;;13.25;100.00
49979;BME280;35869;50.990;6.962;2023-10-31T14:09:54;100065.09;;;12.99;100.00
49979;BME280;35869;50.990;6.962;2023-10-31T14:14:54;100074.94;;;13.08;100.00
49979;BME280;35869;50.990;6.962;2023-10-31T14:19:56;100070.19;;;13.01;100.00
49979;BME280;35869;50.990;6.962;2023-10-31T14:24:56;100073.97;;;13.37;100.00
49979;BME280;35869;50.990;6.962;2023-10-31T14:29:57;100080.56;;;13.29;100.00
49979;BME280;35869;50.990;6.962;2023-10-31T14:34:57;100073.47;;;13.31;100.00
49979;BME280;35869;50.990;6.962;2023-10-31T14:39:57;100075.34;;;13.42;100.00
49979;BME280;35869;50.990;6.962;2023-10-31T14:44:58;100082.75;;;13.36;100.00
49979;BME280;35869;50.990;6.962;2023-10-31T14:49:58;100093.00;;;13.39;100.00
49979;BME280;35869;50.990;6.962;2023-10-31T14:54:59;100091.63;;;13.33;100.00
49979;BME280;35869;50.990;6.962;2023-10-31T14:59:59;100102.78;;;13.22;100.00
49979;BME280;35869;50.990;6.962;2023-10-31T15:05:00;100105.22;;;13.11;100.00
49979;BME280;35869;50.990;6.962;2023-10-31T15:10:00;100108.94;;;13.21;100.00
49979;BME280;35869;50.990;6.962;2023-10-31T15:15:00;100113.75;;;13.27;100.00
49979;BME280;35869;50.990;6.962;2023-10-31T15:20:00;100120.44;;;13.31;100.00
49979;BME280;35869;50.990;6.962;2023-10-31T15:25:17;100124.59;;;13.21;100.00
49979;BME280;35869;50.990;6.962;2023-10-31T15:30:17;100115.25;;;13.17;100.00
49979;BME280;35869;50.990;6.962;2023-10-31T15:35:23;100129.34;;;13.15;100.00
49979;BME280;35869;50.990;6.962;2023-10-31T15:40:24;100131.28;;;13.25;100.00
49979;BME280;35869;50.990;6.962;2023-10-31T15:45:28;100145.53;;;13.20;100.00
49979;BME280;35869;50.990;6.962;2023-10-31T15:50:32;100149.63;;;13.24;100.00
49979;BME280;35869;50.990;6.962;2023-10-31T15:55:33;100154.38;;;13.17;100.00
49979;BME280;35869;50.990;6.962;2023-10-31T16:00:34;100153.56;;;13.17;100.00
49979;BME280;35869;50.990;6.962;2023-10-31T16:05:35;100178.81;;;13.16;100.00
49979;BME280;35869;50.990;6.962;2023-10-31T16:10:35;100174.94;;;12.95;100.00
49979;BME280;35869;50.990;6.962;2023-10-31T16:15:38;100180.53;;;12.89;100.00
49979;BME280;35869;50.990;6.962;2023-10-31T16:20:38;100183.16;;;12.89;100.00
49979;BME280;35869;50.990;6.962;2023-10-31T16:25:40;100193.03;;;12.84;100.00
49979;BME280;35869;50.990;6.962;2023-10-31T16:30:43;100197.78;;;12.77;100.00
49979;BME280;35869;50.990;6.962;2023-10-31T16:35:44;100192.78;;;12.74;100.00
49979;BME280;35869;50.990;6.962;2023-10-31T16:40:48;100197.16;;;12.73;100.00
49979;BME280;35869;50.990;6.962;2023-10-31T16:45:50;100206.91;;;12.70;100.00
49979;BME280;35869;50.990;6.962;2023-10-31T16:50:51;100204.53;;;12.67;100.00
49979;BME280;35869;50.990;6.962;2023-10-31T16:55:54;100212.50;;;12.64;100.00
49979;BME280;35869;50.990;6.962;2023-10-31T17:00:54;100212.78;;;12.59;100.00
49979;BME280;35869;50.990;6.962;2023-10-31T17:05:55;100222.47;;;12.57;100.00
49979;BME280;35869;50.990;6.962;2023-10-31T17:11:00;100218.28;;;12.54;100.00
49979;BME280;35869;50.990;6.962;2023-10-31T17:16:02;100217.63;;;12.51;100.00
49979;BME280;35869;50.990;6.962;2023-10-31T17:21:03;100231.78;;;12.47;100.00
49979;BME280;35869;50.990;6.962;2023-10-31T17:26:03;100240.63;;;12.44;100.00
49979;BME280;35869;50.990;6.962;2023-10-31T17:31:15;100252.00;;;12.43;100.00
49979;BME280;35869;50.990;6.962;2023-10-31T17:36:18;100249.66;;;12.39;100.00
49979;BME280;35869;50.990;6.962;2023-10-31T17:41:21;100261.06;;;12.36;100.00
49979;BME280;35869;50.990;6.962;2023-10-31T17:46:22;100265.66;;;12.33;100.00
49979;BME280;35869;50.990;6.962;2023-10-31T17:51:25;100272.78;;;12.29;100.00
49979;BME280;35869;50.990;6.962;2023-10-31T17:56:28;100278.25;;;12.24;100.00
49979;BME280;35869;50.990;6.962;2023-10-31T18:01:29;100289.53;;;12.25;100.00
49979;BME280;35869;50.990;6.962;2023-10-31T18:06:30;100294.25;;;12.18;100.00
49979;BME280;35869;50.990;6.962;2023-10-31T18:11:30;100303.00;;;12.17;100.00
49979;BME280;35869;50.990;6.962;2023-10-31T18:16:30;100305.88;;;12.13;100.00
49979;BME280;35869;50.990;6.962;2023-10-31T18:21:30;100303.94;;;12.16;100.00
49979;BME280;35869;50.990;6.962;2023-10-31T18:26:31;100306.91;;;12.10;100.00
49979;BME280;35869;50.990;6.962;2023-10-31T18:31:31;100300.16;;;12.06;100.00
49979;BME280;35869;50.990;6.962;2023-10-31T18:36:31;100309.09;;;12.02;100.00
49979;BME280;35869;50.990;6.962;2023-10-31T18:41:31;100315.31;;;11.99;100.00
49979;BME280;35869;50.990;6.962;2023-10-31T18:46:32;100313.81;;;11.95;100.00
49979;BME280;35869;50.990;6.962;2023-10-31T18:51:32;100312.13;;;11.94;100.00
49979;BME280;35869;50.990;6.962;2023-10-31T18:56:32;100310.09;;;11.99;100.00
49979;BME280;35869;50.990;6.962;2023-10-31T19:01:32;100309.72;;;11.91;100.00
49979;BME280;35869;50.990;6.962;2023-10-31T19:06:32;100310.63;;;11.90;100.00
49979;BME280;35869;50.990;6.962;2023-10-31T19:11:34;100314.25;;;11.88;100.00
49979;BME280;35869;50.990;6.962;2023-10-31T19:16:34;100315.16;;;11.87;100.00
49979;BME280;35869;50.990;6.962;2023-10-31T19:21:35;100313.81;;;11.80;100.00
49979;BME280;35869;50.990;6.962;2023-10-31T19:26:35;100308.53;;;11.81;100.00
49979;BME280;35869;50.990;6.962;2023-10-31T19:31:35;100312.97;;;11.79;100.00
49979;BME280;35869;50.990;6.962;2023-10-31T19:36:35;100310.28;;;11.81;100.00
49979;BME280;35869;50.990;6.962;2023-10-31T19:41:35;100303.47;;;11.78;100.00
49979;BME280;35869;50.990;6.962;2023-10-31T19:46:36;100308.75;;;11.77;100.00
49979;BME280;35869;50.990;6.962;2023-10-31T19:51:36;100307.25;;;11.72;100.00
49979;BME280;35869;50.990;6.962;2023-10-31T19:56:36;100315.91;;;11.73;100.00
49979;BME280;35869;50.990;6.962;2023-10-31T20:01:36;100321.13;;;11.73;100.00
49979;BME280;35869;50.990;6.962;2023-10-31T20:06:36;100326.41;;;11.71;100.00
49979;BME280;35869;50.990;6.962;2023-10-31T20:11:37;100317.09;;;11.67;100.00
49979;BME280;35869;50.990;6.962;2023-10-31T20:16:37;100312.63;;;11.69;100.00
49979;BME280;35869;50.990;6.962;2023-10-31T20:21:37;100322.31;;;11.67;100.00
49979;BME280;35869;50.990;6.962;2023-10-31T20:26:37;100324.06;;;11.67;100.00
49979;BME280;35869;50.990;6.962;2023-10-31T20:31:37;100330.13;;;11.67;100.00
49979;BME280;35869;50.990;6.962;2023-10-31T20:36:38;100321.47;;;11.67;100.00
49979;BME280;35869;50.990;6.962;2023-10-31T20:41:38;100325.66;;;11.69;100.00
49979;BME280;35869;50.990;6.962;2023-10-31T20:46:38;100329.28;;;11.67;100.00
49979;BME280;35869;50.990;6.962;2023-10-31T20:51:38;100318.88;;;11.67;100.00
49979;BME280;35869;50.990;6.962;2023-10-31T20:56:38;100324.06;;;11.67;100.00
49979;BME280;35869;50.990;6.962;2023-10-31T21:01:39;100323.03;;;11.69;100.00
49979;BME280;35869;50.990;6.962;2023-10-31T21:06:39;100318.88;;;11.67;100.00
49979;BME280;35869;50.990;6.962;2023-10-31T21:11:39;100328.41;;;11.66;100.00
49979;BME280;35869;50.990;6.962;2023-10-31T21:16:39;100310.03;;;11.69;100.00
49979;BME280;35869;50.990;6.962;2023-10-31T21:21:40;100310.97;;;11.68;100.00
49979;BME280;35869;50.990;6.962;2023-10-31T21:26:40;100319.59;;;11.69;100.00
49979;BME280;35869;50.990;6.962;2023-10-31T21:31:40;100321.28;;;11.70;100.00
49979;BME280;35869;50.990;6.962;2023-10-31T21:36:40;100306.50;;;11.70;100.00
49979;BME280;35869;50.990;6.962;2023-10-31T21:41:44;100323.03;;;11.69;100.00
49979;BME280;35869;50.990;6.962;2023-10-31T21:46:44;100314.31;;;11.70;100.00
49979;BME280;35869;50.990;6.962;2023-10-31T21:51:45;100313.38;;;11.71;100.00
49979;BME280;35869;50.990;6.962;2023-10-31T21:56:45;100303.06;;;11.70;100.00
49979;BME280;35869;50.990;6.962;2023-10-31T22:01:45;100310.78;;;11.71;100.00
49979;BME280;35869;50.990;6.962;2023-10-31T22:06:46;100314.16;;;11.73;100.00
49979;BME280;35869;50.990;6.962;2023-10-31T22:11:46;100319.50;;;11.70;100.00
49979;BME280;35869;50.990;6.962;2023-10-31T22:16:46;100307.44;;;11.69;100.00
49979;BME280;35869;50.990;6.962;2023-10-31T22:21:46;100313.31;;;11.73;100.00
49979;BME280;35869;50.990;6.962;2023-10-31T22:26:46;100315.81;;;11.74;100.00
49979;BME280;35869;50.990;6.962;2023-10-31T22:31:47;100329.00;;;11.71;100.00
49979;BME280;35869;50.990;6.962;2023-10-31T22:36:47;100329.94;;;11.70;100.00
49979;BME280;35869;50.990;6.962;2023-10-31T22:41:47;100328.16;;;11.71;100.00
49979;BME280;35869;50.990;6.962;2023-10-31T22:46:48;100321.28;;;11.70;100.00
49979;BME280;35869;50.990;6.962;2023-10-31T22:51:48;100325.06;;;11.64;100.00
49979;BME280;35869;50.990;6.962;2023-10-31T22:56:48;100317.09;;;11.67;100.00
49979;BME280;35869;50.990;6.962;2023-10-31T23:01:48;100311.94;;;11.66;100.00
49979;BME280;35869;50.990;6.962;2023-10-31T23:06:48;100306.69;;;11.67;100.00
49979;BME280;35869;50.990;6.962;2023-10-31T23:11:49;100308.44;;;11.67;100.00
49979;BME280;35869;50.990;6.962;2023-10-31T23:16:49;100308.50;;;11.65;100.00
49979;BME280;35869;50.990;6.962;2023-10-31T23:21:49;100300.63;;;11.67;100.00
49979;BME280;35869;50.990;6.962;2023-10-31T23:26:49;100300.69;;;11.65;100.00
49979;BME280;35869;50.990;6.962;2023-10-31T23:31:50;100301.38;;;11.69;100.00
49979;BME280;35869;50.990;6.962;2023-10-31T23:36:50;100295.34;;;11.68;100.00
49979;BME280;35869;50.990;6.962;2023-10-31T23:41:50;100295.44;;;11.67;100.00
49979;BME280;35869;50.990;6.962;2023-10-31T23:46:50;100289.34;;;11.66;100.00
49979;BME280;35869;50.990;6.962;2023-10-31T23:51:51;100291.22;;;11.64;100.00
49979;BME280;35869;50.990;6.962;2023-10-31T23:56:51;100289.34;;;11.66;100.00
